sensor_id;sensor_type;location;lat;lon;timestamp;P1;durP1;ratioP1;P2;durP2;ratioP2
14030;SDS011;7090;49.436;8.490;2023-06-22T00:00:55;6.72;;;6.53;;
14030;SDS011;7090;49.436;8.490;2023-06-22T00:03:22;6.97;;;6.78;;
14030;SDS011;7090;49.436;8.490;2023-06-22T00:05:49;7.28;;;7.00;;
14030;SDS011;7090;49.436;8.490;2023-06-22T00:08:16;6.72;;;6.53;;
14030;SDS011;7090;49.436;8.490;2023-06-22T00:10:42;6.70;;;6.50;;
14030;SDS011;7090;49.436;8.490;2023-06-22T00:13:08;6.68;;;6.47;;
14030;SDS011;7090;49.436;8.490;2023-06-22T00:15:35;6.30;;;6.10;;
14030;SDS011;7090;49.436;8.490;2023-06-22T00:18:03;6.30;;;6.10;;
14030;SDS011;7090;49.436;8.490;2023-06-22T00:20:30;6.18;;;5.97;;
14030;SDS011;7090;49.436;8.490;2023-06-22T00:22:56;6.18;;;5.97;;
14030;SDS011;7090;49.436;8.490;2023-06-22T00:25:22;5.80;;;5.60;;
14030;SDS011;7090;49.436;8.490;2023-06-22T00:27:49;6.13;;;5.80;;
14030;SDS011;7090;49.436;8.490;2023-06-22T00:30:18;5.45;;;5.25;;
14030;SDS011;7090;49.436;8.490;2023-06-22T00:32:44;5.40;;;5.20;;
14030;SDS011;7090;49.436;8.490;2023-06-22T00:35:11;7.07;;;6.68;;
14030;SDS011;7090;49.436;8.490;2023-06-22T00:37:37;6.25;;;5.95;;
14030;SDS011;7090;49.436;8.490;2023-06-22T00:40:07;7.13;;;6.72;;
14030;SDS011;7090;49.436;8.490;2023-06-22T00:42:36;7.95;;;7.35;;
14030;SDS011;7090;49.436;8.490;2023-06-22T00:45:02;7.35;;;6.95;;
14030;SDS011;7090;49.436;8.490;2023-06-22T00:47:28;7.10;;;6.68;;
14030;SDS011;7090;49.436;8.490;2023-06-22T00:49:54;15.35;;;14.45;;
14030;SDS011;7090;49.436;8.490;2023-06-22T00:52:21;18.58;;;17.67;;
14030;SDS011;7090;49.436;8.490;2023-06-22T00:54:52;21.25;;;19.92;;
14030;SDS011;7090;49.436;8.490;2023-06-22T00:57:18;19.65;;;18.48;;
14030;SDS011;7090;49.436;8.490;2023-06-22T00:59:45;17.50;;;16.50;;
14030;SDS011;7090;49.436;8.490;2023-06-22T01:02:12;18.02;;;16.52;;
14030;SDS011;7090;49.436;8.490;2023-06-22T01:04:38;15.43;;;14.50;;
14030;SDS011;7090;49.436;8.490;2023-06-22T01:07:13;16.08;;;14.82;;
14030;SDS011;7090;49.436;8.490;2023-06-22T01:10:00;13.75;;;13.15;;
14030;SDS011;7090;49.436;8.490;2023-06-22T01:12:49;12.65;;;12.10;;
14030;SDS011;7090;49.436;8.490;2023-06-22T01:16:10;13.55;;;12.90;;
14030;SDS011;7090;49.436;8.490;2023-06-22T01:18:37;11.73;;;11.23;;
14030;SDS011;7090;49.436;8.490;2023-06-22T01:21:06;12.07;;;11.43;;
14030;SDS011;7090;49.436;8.490;2023-06-22T01:26:43;10.48;;;9.95;;
14030;SDS011;7090;49.436;8.490;2023-06-22T01:29:47;9.30;;;8.90;;
14030;SDS011;7090;49.436;8.490;2023-06-22T01:32:26;9.60;;;9.20;;
14030;SDS011;7090;49.436;8.490;2023-06-22T01:34:57;10.57;;;10.02;;
14030;SDS011;7090;49.436;8.490;2023-06-22T01:37:25;9.27;;;8.90;;
14030;SDS011;7090;49.436;8.490;2023-06-22T01:39:51;9.07;;;8.68;;
14030;SDS011;7090;49.436;8.490;2023-06-22T01:42:18;9.68;;;9.27;;
14030;SDS011;7090;49.436;8.490;2023-06-22T01:44:44;9.98;;;9.57;;
14030;SDS011;7090;49.436;8.490;2023-06-22T01:47:11;9.15;;;8.75;;
14030;SDS011;7090;49.436;8.490;2023-06-22T01:49:38;9.05;;;8.65;;
14030;SDS011;7090;49.436;8.490;2023-06-22T01:52:06;9.30;;;8.90;;
14030;SDS011;7090;49.436;8.490;2023-06-22T01:54:32;8.90;;;8.50;;
14030;SDS011;7090;49.436;8.490;2023-06-22T01:56:58;8.57;;;8.27;;
14030;SDS011;7090;49.436;8.490;2023-06-22T01:59:29;8.95;;;8.55;;
14030;SDS011;7090;49.436;8.490;2023-06-22T02:02:09;8.20;;;7.90;;
14030;SDS011;7090;49.436;8.490;2023-06-22T02:04:44;9.23;;;8.60;;
14030;SDS011;7090;49.436;8.490;2023-06-22T02:07:13;8.30;;;8.00;;
14030;SDS011;7090;49.436;8.490;2023-06-22T02:09:42;8.75;;;8.35;;
14030;SDS011;7090;49.436;8.490;2023-06-22T02:12:10;8.18;;;7.88;;
14030;SDS011;7090;49.436;8.490;2023-06-22T02:14:38;7.53;;;7.22;;
14030;SDS011;7090;49.436;8.490;2023-06-22T02:17:05;7.60;;;7.30;;
14030;SDS011;7090;49.436;8.490;2023-06-22T02:19:32;7.57;;;7.28;;
14030;SDS011;7090;49.436;8.490;2023-06-22T02:22:01;7.43;;;7.13;;
14030;SDS011;7090;49.436;8.490;2023-06-22T02:24:26;7.38;;;7.07;;
14030;SDS011;7090;49.436;8.490;2023-06-22T02:26:52;7.60;;;7.30;;
14030;SDS011;7090;49.436;8.490;2023-06-22T02:29:17;6.60;;;6.40;;
14030;SDS011;7090;49.436;8.490;2023-06-22T02:31:43;8.40;;;7.90;;
14030;SDS011;7090;49.436;8.490;2023-06-22T02:34:09;6.70;;;6.50;;
14030;SDS011;7090;49.436;8.490;2023-06-22T02:36:34;6.38;;;6.18;;
14030;SDS011;7090;49.436;8.490;2023-06-22T02:39:00;7.03;;;6.72;;
14030;SDS011;7090;49.436;8.490;2023-06-22T02:41:26;6.40;;;6.20;;
14030;SDS011;7090;49.436;8.490;2023-06-22T02:43:52;6.10;;;5.90;;
14030;SDS011;7090;49.436;8.490;2023-06-22T02:46:18;6.75;;;6.45;;
14030;SDS011;7090;49.436;8.490;2023-06-22T02:48:43;5.60;;;5.40;;
14030;SDS011;7090;49.436;8.490;2023-06-22T02:51:09;6.28;;;5.97;;
14030;SDS011;7090;49.436;8.490;2023-06-22T02:53:35;5.65;;;5.45;;
14030;SDS011;7090;49.436;8.490;2023-06-22T02:56:01;6.88;;;6.47;;
14030;SDS011;7090;49.436;8.490;2023-06-22T02:58:30;7.20;;;6.80;;
14030;SDS011;7090;49.436;8.490;2023-06-22T03:01:03;5.28;;;5.07;;
14030;SDS011;7090;49.436;8.490;2023-06-22T03:03:31;8.55;;;7.88;;
14030;SDS011;7090;49.436;8.490;2023-06-22T03:05:57;7.75;;;7.28;;
14030;SDS011;7090;49.436;8.490;2023-06-22T03:08:23;5.72;;;5.53;;
14030;SDS011;7090;49.436;8.490;2023-06-22T03:10:48;4.75;;;4.65;;
14030;SDS011;7090;49.436;8.490;2023-06-22T03:13:14;4.80;;;4.70;;
14030;SDS011;7090;49.436;8.490;2023-06-22T03:15:40;5.43;;;5.22;;
14030;SDS011;7090;49.436;8.490;2023-06-22T03:18:05;5.35;;;5.15;;
14030;SDS011;7090;49.436;8.490;2023-06-22T03:20:31;5.10;;;4.90;;
14030;SDS011;7090;49.436;8.490;2023-06-22T03:22:58;5.90;;;5.70;;
14030;SDS011;7090;49.436;8.490;2023-06-22T03:25:24;5.43;;;5.22;;
14030;SDS011;7090;49.436;8.490;2023-06-22T03:27:50;5.40;;;5.20;;
14030;SDS011;7090;49.436;8.490;2023-06-22T03:30:16;5.00;;;4.80;;
14030;SDS011;7090;49.436;8.490;2023-06-22T03:32:41;4.80;;;4.68;;
14030;SDS011;7090;49.436;8.490;2023-06-22T03:35:08;4.30;;;4.20;;
14030;SDS011;7090;49.436;8.490;2023-06-22T03:37:34;4.57;;;4.47;;
14030;SDS011;7090;49.436;8.490;2023-06-22T03:40:00;9.73;;;8.98;;
14030;SDS011;7090;49.436;8.490;2023-06-22T03:42:25;4.30;;;4.20;;
14030;SDS011;7090;49.436;8.490;2023-06-22T03:44:51;3.83;;;3.72;;
14030;SDS011;7090;49.436;8.490;2023-06-22T03:47:17;6.28;;;5.65;;
14030;SDS011;7090;49.436;8.490;2023-06-22T03:49:43;4.00;;;3.90;;
14030;SDS011;7090;49.436;8.490;2023-06-22T03:52:08;3.90;;;3.80;;
14030;SDS011;7090;49.436;8.490;2023-06-22T03:54:35;4.55;;;4.35;;
14030;SDS011;7090;49.436;8.490;2023-06-22T03:57:01;3.90;;;3.80;;
14030;SDS011;7090;49.436;8.490;2023-06-22T03:59:27;4.13;;;4.03;;
14030;SDS011;7090;49.436;8.490;2023-06-22T04:01:53;4.20;;;4.10;;
14030;SDS011;7090;49.436;8.490;2023-06-22T04:04:18;4.32;;;4.22;;
14030;SDS011;7090;49.436;8.490;2023-06-22T04:06:44;4.50;;;4.40;;
14030;SDS011;7090;49.436;8.490;2023-06-22T04:09:09;4.65;;;4.45;;
14030;SDS011;7090;49.436;8.490;2023-06-22T04:11:35;5.53;;;5.32;;
14030;SDS011;7090;49.436;8.490;2023-06-22T04:14:01;4.60;;;4.50;;
14030;SDS011;7090;49.436;8.490;2023-06-22T04:16:26;4.78;;;4.65;;
14030;SDS011;7090;49.436;8.490;2023-06-22T04:18:52;4.40;;;4.30;;
14030;SDS011;7090;49.436;8.490;2023-06-22T04:21:18;4.40;;;4.30;;
14030;SDS011;7090;49.436;8.490;2023-06-22T04:23:44;4.80;;;4.60;;
14030;SDS011;7090;49.436;8.490;2023-06-22T04:26:11;4.70;;;4.60;;
14030;SDS011;7090;49.436;8.490;2023-06-22T04:28:36;5.10;;;4.90;;
14030;SDS011;7090;49.436;8.490;2023-06-22T04:31:02;5.10;;;4.90;;
14030;SDS011;7090;49.436;8.490;2023-06-22T04:33:28;5.30;;;5.10;;
14030;SDS011;7090;49.436;8.490;2023-06-22T04:35:54;5.38;;;5.18;;
14030;SDS011;7090;49.436;8.490;2023-06-22T04:38:22;5.55;;;5.35;;
14030;SDS011;7090;49.436;8.490;2023-06-22T04:40:47;5.50;;;5.30;;
14030;SDS011;7090;49.436;8.490;2023-06-22T04:43:13;5.47;;;5.28;;
14030;SDS011;7090;49.436;8.490;2023-06-22T04:45:38;6.07;;;5.88;;
14030;SDS011;7090;49.436;8.490;2023-06-22T04:48:04;5.90;;;5.70;;
14030;SDS011;7090;49.436;8.490;2023-06-22T04:50:30;6.40;;;6.20;;
14030;SDS011;7090;49.436;8.490;2023-06-22T04:52:56;7.07;;;6.78;;
14030;SDS011;7090;49.436;8.490;2023-06-22T04:55:21;7.70;;;7.38;;
14030;SDS011;7090;49.436;8.490;2023-06-22T04:57:47;7.15;;;6.85;;
14030;SDS011;7090;49.436;8.490;2023-06-22T05:00:23;7.20;;;6.90;;
14030;SDS011;7090;49.436;8.490;2023-06-22T05:02:48;6.95;;;6.65;;
14030;SDS011;7090;49.436;8.490;2023-06-22T05:05:15;7.80;;;7.30;;
14030;SDS011;7090;49.436;8.490;2023-06-22T05:07:42;8.50;;;7.88;;
14030;SDS011;7090;49.436;8.490;2023-06-22T05:10:09;7.55;;;7.25;;
14030;SDS011;7090;49.436;8.490;2023-06-22T05:12:36;7.30;;;7.00;;
14030;SDS011;7090;49.436;8.490;2023-06-22T05:15:02;8.45;;;7.88;;
14030;SDS011;7090;49.436;8.490;2023-06-22T05:17:28;7.63;;;7.32;;
14030;SDS011;7090;49.436;8.490;2023-06-22T05:19:54;8.13;;;7.40;;
14030;SDS011;7090;49.436;8.490;2023-06-22T05:22:20;6.30;;;6.10;;
14030;SDS011;7090;49.436;8.490;2023-06-22T05:24:45;8.00;;;7.60;;
14030;SDS011;7090;49.436;8.490;2023-06-22T05:27:12;7.35;;;7.05;;
14030;SDS011;7090;49.436;8.490;2023-06-22T05:29:38;7.70;;;7.40;;
14030;SDS011;7090;49.436;8.490;2023-06-22T05:32:04;7.60;;;7.30;;
14030;SDS011;7090;49.436;8.490;2023-06-22T05:34:30;7.38;;;7.07;;
14030;SDS011;7090;49.436;8.490;2023-06-22T05:36:55;7.20;;;6.90;;
14030;SDS011;7090;49.436;8.490;2023-06-22T05:39:23;7.88;;;7.28;;
14030;SDS011;7090;49.436;8.490;2023-06-22T05:41:49;7.78;;;7.47;;
14030;SDS011;7090;49.436;8.490;2023-06-22T05:44:14;7.28;;;6.97;;
14030;SDS011;7090;49.436;8.490;2023-06-22T05:46:40;6.80;;;6.60;;
14030;SDS011;7090;49.436;8.490;2023-06-22T05:49:12;6.63;;;6.43;;
14030;SDS011;7090;49.436;8.490;2023-06-22T05:51:38;6.47;;;6.28;;
14030;SDS011;7090;49.436;8.490;2023-06-22T05:54:04;6.50;;;6.30;;
14030;SDS011;7090;49.436;8.490;2023-06-22T05:56:29;6.00;;;5.80;;
14030;SDS011;7090;49.436;8.490;2023-06-22T05:58:55;6.13;;;5.93;;
14030;SDS011;7090;49.436;8.490;2023-06-22T06:01:21;7.30;;;7.00;;
14030;SDS011;7090;49.436;8.490;2023-06-22T06:03:47;6.30;;;6.10;;
14030;SDS011;7090;49.436;8.490;2023-06-22T06:06:13;6.22;;;6.03;;
14030;SDS011;7090;49.436;8.490;2023-06-22T06:08:39;5.85;;;5.65;;
14030;SDS011;7090;49.436;8.490;2023-06-22T06:11:05;5.90;;;5.70;;
14030;SDS011;7090;49.436;8.490;2023-06-22T06:13:30;5.85;;;5.65;;
14030;SDS011;7090;49.436;8.490;2023-06-22T06:15:56;5.53;;;5.25;;
14030;SDS011;7090;49.436;8.490;2023-06-22T06:18:22;5.50;;;5.30;;
14030;SDS011;7090;49.436;8.490;2023-06-22T06:20:48;6.18;;;5.97;;
14030;SDS011;7090;49.436;8.490;2023-06-22T06:23:13;5.45;;;5.25;;
14030;SDS011;7090;49.436;8.490;2023-06-22T06:25:39;6.63;;;6.13;;
14030;SDS011;7090;49.436;8.490;2023-06-22T06:28:05;7.22;;;6.63;;
14030;SDS011;7090;49.436;8.490;2023-06-22T06:30:30;5.75;;;5.55;;
14030;SDS011;7090;49.436;8.490;2023-06-22T06:32:56;6.10;;;5.70;;
14030;SDS011;7090;49.436;8.490;2023-06-22T06:35:22;7.00;;;6.20;;
14030;SDS011;7090;49.436;8.490;2023-06-22T06:37:48;6.05;;;5.75;;
14030;SDS011;7090;49.436;8.490;2023-06-22T06:40:15;5.85;;;5.65;;
14030;SDS011;7090;49.436;8.490;2023-06-22T06:42:46;5.50;;;5.30;;
14030;SDS011;7090;49.436;8.490;2023-06-22T06:45:14;6.13;;;5.93;;
14030;SDS011;7090;49.436;8.490;2023-06-22T06:47:41;6.30;;;6.00;;
14030;SDS011;7090;49.436;8.490;2023-06-22T06:50:07;5.60;;;5.40;;
14030;SDS011;7090;49.436;8.490;2023-06-22T06:52:33;6.32;;;6.03;;
14030;SDS011;7090;49.436;8.490;2023-06-22T06:54:59;6.07;;;5.88;;
14030;SDS011;7090;49.436;8.490;2023-06-22T06:57:25;5.70;;;5.50;;
14030;SDS011;7090;49.436;8.490;2023-06-22T06:59:54;6.45;;;6.15;;
14030;SDS011;7090;49.436;8.490;2023-06-22T07:02:21;6.63;;;6.32;;
14030;SDS011;7090;49.436;8.490;2023-06-22T07:04:47;5.60;;;5.40;;
14030;SDS011;7090;49.436;8.490;2023-06-22T07:07:13;6.70;;;6.40;;
14030;SDS011;7090;49.436;8.490;2023-06-22T07:09:39;7.55;;;7.05;;
14030;SDS011;7090;49.436;8.490;2023-06-22T07:12:05;7.05;;;6.57;;
14030;SDS011;7090;49.436;8.490;2023-06-22T07:14:31;6.60;;;6.28;;
14030;SDS011;7090;49.436;8.490;2023-06-22T07:16:57;7.28;;;6.88;;
14030;SDS011;7090;49.436;8.490;2023-06-22T07:19:26;6.78;;;6.47;;
14030;SDS011;7090;49.436;8.490;2023-06-22T07:21:53;5.57;;;5.38;;
14030;SDS011;7090;49.436;8.490;2023-06-22T07:24:20;7.50;;;7.00;;
14030;SDS011;7090;49.436;8.490;2023-06-22T07:26:49;7.05;;;6.65;;
14030;SDS011;7090;49.436;8.490;2023-06-22T07:29:17;7.80;;;7.28;;
14030;SDS011;7090;49.436;8.490;2023-06-22T07:31:45;5.97;;;5.72;;
14030;SDS011;7090;49.436;8.490;2023-06-22T07:34:10;6.35;;;6.05;;
14030;SDS011;7090;49.436;8.490;2023-06-22T07:36:36;6.07;;;5.88;;
14030;SDS011;7090;49.436;8.490;2023-06-22T07:39:02;5.60;;;5.40;;
14030;SDS011;7090;49.436;8.490;2023-06-22T07:41:28;5.97;;;5.78;;
14030;SDS011;7090;49.436;8.490;2023-06-22T07:43:54;6.30;;;6.00;;
14030;SDS011;7090;49.436;8.490;2023-06-22T07:46:20;6.20;;;6.00;;
14030;SDS011;7090;49.436;8.490;2023-06-22T07:48:45;6.80;;;6.50;;
14030;SDS011;7090;49.436;8.490;2023-06-22T07:51:11;5.97;;;5.78;;
14030;SDS011;7090;49.436;8.490;2023-06-22T07:53:40;6.78;;;6.47;;
14030;SDS011;7090;49.436;8.490;2023-06-22T07:56:07;6.18;;;5.97;;
14030;SDS011;7090;49.436;8.490;2023-06-22T07:58:34;6.97;;;6.68;;
14030;SDS011;7090;49.436;8.490;2023-06-22T08:01:00;6.03;;;5.82;;
14030;SDS011;7090;49.436;8.490;2023-06-22T08:03:27;7.38;;;7.07;;
14030;SDS011;7090;49.436;8.490;2023-06-22T08:05:53;7.07;;;6.78;;
14030;SDS011;7090;49.436;8.490;2023-06-22T08:08:18;8.38;;;7.82;;
14030;SDS011;7090;49.436;8.490;2023-06-22T08:10:44;6.30;;;6.10;;
14030;SDS011;7090;49.436;8.490;2023-06-22T08:13:09;6.25;;;6.05;;
14030;SDS011;7090;49.436;8.490;2023-06-22T08:15:35;7.05;;;6.75;;
14030;SDS011;7090;49.436;8.490;2023-06-22T08:18:01;7.88;;;7.40;;
14030;SDS011;7090;49.436;8.490;2023-06-22T08:20:26;6.80;;;6.55;;
14030;SDS011;7090;49.436;8.490;2023-06-22T08:22:53;10.35;;;8.48;;
14030;SDS011;7090;49.436;8.490;2023-06-22T08:25:19;8.63;;;7.95;;
14030;SDS011;7090;49.436;8.490;2023-06-22T08:27:46;8.43;;;7.72;;
14030;SDS011;7090;49.436;8.490;2023-06-22T08:30:12;8.77;;;8.20;;
14030;SDS011;7090;49.436;8.490;2023-06-22T08:32:38;8.40;;;7.90;;
14030;SDS011;7090;49.436;8.490;2023-06-22T08:35:04;6.70;;;6.40;;
14030;SDS011;7090;49.436;8.490;2023-06-22T08:37:31;8.55;;;7.90;;
14030;SDS011;7090;49.436;8.490;2023-06-22T08:40:00;6.43;;;6.18;;
14030;SDS011;7090;49.436;8.490;2023-06-22T08:42:26;7.38;;;7.07;;
14030;SDS011;7090;49.436;8.490;2023-06-22T08:44:52;8.65;;;8.05;;
14030;SDS011;7090;49.436;8.490;2023-06-22T08:47:18;8.05;;;7.65;;
14030;SDS011;7090;49.436;8.490;2023-06-22T08:49:44;7.60;;;7.20;;
14030;SDS011;7090;49.436;8.490;2023-06-22T08:52:10;6.95;;;6.68;;
14030;SDS011;7090;49.436;8.490;2023-06-22T08:54:36;6.05;;;5.85;;
14030;SDS011;7090;49.436;8.490;2023-06-22T08:57:01;6.90;;;6.60;;
14030;SDS011;7090;49.436;8.490;2023-06-22T08:59:27;6.57;;;6.32;;
14030;SDS011;7090;49.436;8.490;2023-06-22T09:01:53;6.80;;;6.50;;
14030;SDS011;7090;49.436;8.490;2023-06-22T09:04:18;6.88;;;6.57;;
14030;SDS011;7090;49.436;8.490;2023-06-22T09:06:47;6.38;;;6.18;;
14030;SDS011;7090;49.436;8.490;2023-06-22T09:09:13;8.60;;;8.10;;
14030;SDS011;7090;49.436;8.490;2023-06-22T09:11:39;7.90;;;7.50;;
14030;SDS011;7090;49.436;8.490;2023-06-22T09:14:05;8.23;;;7.72;;
14030;SDS011;7090;49.436;8.490;2023-06-22T09:16:31;7.85;;;7.45;;
14030;SDS011;7090;49.436;8.490;2023-06-22T09:18:57;8.40;;;7.90;;
14030;SDS011;7090;49.436;8.490;2023-06-22T09:21:23;7.88;;;7.43;;
14030;SDS011;7090;49.436;8.490;2023-06-22T09:23:48;7.60;;;7.20;;
14030;SDS011;7090;49.436;8.490;2023-06-22T09:26:16;7.05;;;6.75;;
14030;SDS011;7090;49.436;8.490;2023-06-22T09:28:43;8.93;;;8.32;;
14030;SDS011;7090;49.436;8.490;2023-06-22T09:31:08;7.70;;;7.30;;
14030;SDS011;7090;49.436;8.490;2023-06-22T09:33:34;8.73;;;8.10;;
14030;SDS011;7090;49.436;8.490;2023-06-22T09:36:00;7.70;;;7.30;;
14030;SDS011;7090;49.436;8.490;2023-06-22T09:38:26;8.98;;;8.32;;
14030;SDS011;7090;49.436;8.490;2023-06-22T09:40:51;7.45;;;7.05;;
14030;SDS011;7090;49.436;8.490;2023-06-22T09:43:17;9.43;;;8.60;;
14030;SDS011;7090;49.436;8.490;2023-06-22T09:45:43;9.23;;;8.52;;
14030;SDS011;7090;49.436;8.490;2023-06-22T09:48:08;9.45;;;8.85;;
14030;SDS011;7090;49.436;8.490;2023-06-22T09:50:35;10.27;;;9.43;;
14030;SDS011;7090;49.436;8.490;2023-06-22T09:53:01;9.70;;;8.75;;
14030;SDS011;7090;49.436;8.490;2023-06-22T09:55:27;8.40;;;7.85;;
14030;SDS011;7090;49.436;8.490;2023-06-22T09:57:52;8.95;;;8.15;;
14030;SDS011;7090;49.436;8.490;2023-06-22T10:00:19;10.77;;;9.73;;
14030;SDS011;7090;49.436;8.490;2023-06-22T10:02:46;9.98;;;9.18;;
14030;SDS011;7090;49.436;8.490;2023-06-22T10:05:11;10.70;;;8.98;;
14030;SDS011;7090;49.436;8.490;2023-06-22T10:07:37;7.78;;;7.30;;
14030;SDS011;7090;49.436;8.490;2023-06-22T10:10:07;8.07;;;7.47;;
14030;SDS011;7090;49.436;8.490;2023-06-22T10:12:33;9.73;;;8.93;;
14030;SDS011;7090;49.436;8.490;2023-06-22T10:14:59;10.82;;;9.13;;
14030;SDS011;7090;49.436;8.490;2023-06-22T10:17:24;10.43;;;9.63;;
14030;SDS011;7090;49.436;8.490;2023-06-22T10:19:50;8.45;;;7.88;;
14030;SDS011;7090;49.436;8.490;2023-06-22T10:22:16;9.70;;;8.95;;
14030;SDS011;7090;49.436;8.490;2023-06-22T10:24:41;9.23;;;8.43;;
14030;SDS011;7090;49.436;8.490;2023-06-22T10:27:10;12.25;;;10.02;;
14030;SDS011;7090;49.436;8.490;2023-06-22T10:29:37;7.72;;;7.18;;
14030;SDS011;7090;49.436;8.490;2023-06-22T10:32:02;6.93;;;6.63;;
14030;SDS011;7090;49.436;8.490;2023-06-22T10:34:28;10.13;;;8.75;;
14030;SDS011;7090;49.436;8.490;2023-06-22T10:36:54;7.30;;;7.00;;
14030;SDS011;7090;49.436;8.490;2023-06-22T10:39:19;9.80;;;9.10;;
14030;SDS011;7090;49.436;8.490;2023-06-22T10:41:45;10.55;;;9.57;;
14030;SDS011;7090;49.436;8.490;2023-06-22T10:44:11;8.50;;;7.93;;
14030;SDS011;7090;49.436;8.490;2023-06-22T10:46:37;8.95;;;8.40;;
14030;SDS011;7090;49.436;8.490;2023-06-22T10:49:03;10.77;;;9.85;;
14030;SDS011;7090;49.436;8.490;2023-06-22T10:51:28;9.10;;;8.50;;
14030;SDS011;7090;49.436;8.490;2023-06-22T10:53:54;9.23;;;8.43;;
14030;SDS011;7090;49.436;8.490;2023-06-22T10:56:19;8.43;;;7.93;;
14030;SDS011;7090;49.436;8.490;2023-06-22T10:58:45;7.47;;;7.07;;
14030;SDS011;7090;49.436;8.490;2023-06-22T11:01:11;9.90;;;9.20;;
14030;SDS011;7090;49.436;8.490;2023-06-22T11:03:36;8.85;;;8.35;;
14030;SDS011;7090;49.436;8.490;2023-06-22T11:06:02;9.27;;;8.68;;
14030;SDS011;7090;49.436;8.490;2023-06-22T11:08:28;10.10;;;9.13;;
14030;SDS011;7090;49.436;8.490;2023-06-22T11:10:53;11.55;;;9.73;;
14030;SDS011;7090;49.436;8.490;2023-06-22T11:13:19;8.50;;;8.00;;
14030;SDS011;7090;49.436;8.490;2023-06-22T11:15:44;7.97;;;7.57;;
14030;SDS011;7090;49.436;8.490;2023-06-22T11:18:10;6.95;;;6.65;;
14030;SDS011;7090;49.436;8.490;2023-06-22T11:20:38;8.82;;;8.18;;
14030;SDS011;7090;49.436;8.490;2023-06-22T11:23:05;9.00;;;8.20;;
14030;SDS011;7090;49.436;8.490;2023-06-22T11:25:31;9.45;;;8.65;;
14030;SDS011;7090;49.436;8.490;2023-06-22T11:27:57;7.47;;;7.07;;
14030;SDS011;7090;49.436;8.490;2023-06-22T11:30:23;8.98;;;8.38;;
14030;SDS011;7090;49.436;8.490;2023-06-22T11:32:48;9.00;;;8.45;;
14030;SDS011;7090;49.436;8.490;2023-06-22T11:35:14;10.07;;;8.95;;
14030;SDS011;7090;49.436;8.490;2023-06-22T11:37:39;9.20;;;8.55;;
14030;SDS011;7090;49.436;8.490;2023-06-22T11:40:05;9.10;;;8.27;;
14030;SDS011;7090;49.436;8.490;2023-06-22T11:42:34;9.60;;;8.77;;
14030;SDS011;7090;49.436;8.490;2023-06-22T11:45:00;8.15;;;7.75;;
14030;SDS011;7090;49.436;8.490;2023-06-22T11:47:26;7.32;;;7.03;;
14030;SDS011;7090;49.436;8.490;2023-06-22T11:49:52;10.23;;;9.15;;
14030;SDS011;7090;49.436;8.490;2023-06-22T11:52:18;9.98;;;9.20;;
14030;SDS011;7090;49.436;8.490;2023-06-22T11:54:44;9.27;;;8.68;;
14030;SDS011;7090;49.436;8.490;2023-06-22T11:57:10;9.30;;;8.70;;
14030;SDS011;7090;49.436;8.490;2023-06-22T11:59:36;10.27;;;9.23;;
14030;SDS011;7090;49.436;8.490;2023-06-22T12:02:01;9.18;;;8.48;;
14030;SDS011;7090;49.436;8.490;2023-06-22T12:04:28;7.20;;;6.90;;
14030;SDS011;7090;49.436;8.490;2023-06-22T12:06:54;7.93;;;7.53;;
14030;SDS011;7090;49.436;8.490;2023-06-22T12:09:19;9.05;;;7.72;;
14030;SDS011;7090;49.436;8.490;2023-06-22T12:11:45;9.50;;;8.90;;
14030;SDS011;7090;49.436;8.490;2023-06-22T12:14:10;8.80;;;8.30;;
14030;SDS011;7090;49.436;8.490;2023-06-22T12:16:36;9.05;;;8.32;;
14030;SDS011;7090;49.436;8.490;2023-06-22T12:19:02;9.40;;;8.80;;
14030;SDS011;7090;49.436;8.490;2023-06-22T12:21:28;10.27;;;9.32;;
14030;SDS011;7090;49.436;8.490;2023-06-22T12:23:54;9.77;;;8.88;;
14030;SDS011;7090;49.436;8.490;2023-06-22T12:26:19;8.32;;;7.93;;
14030;SDS011;7090;49.436;8.490;2023-06-22T12:28:45;9.52;;;8.50;;
14030;SDS011;7090;49.436;8.490;2023-06-22T12:31:10;8.57;;;8.07;;
14030;SDS011;7090;49.436;8.490;2023-06-22T12:33:36;10.07;;;9.02;;
14030;SDS011;7090;49.436;8.490;2023-06-22T12:36:01;8.40;;;7.65;;
14030;SDS011;7090;49.436;8.490;2023-06-22T12:38:28;10.02;;;9.32;;
14030;SDS011;7090;49.436;8.490;2023-06-22T12:40:54;9.60;;;8.90;;
14030;SDS011;7090;49.436;8.490;2023-06-22T12:43:19;10.25;;;8.93;;
14030;SDS011;7090;49.436;8.490;2023-06-22T12:45:45;8.57;;;7.95;;
14030;SDS011;7090;49.436;8.490;2023-06-22T12:48:10;10.05;;;8.90;;
14030;SDS011;7090;49.436;8.490;2023-06-22T12:50:37;11.68;;;9.32;;
14030;SDS011;7090;49.436;8.490;2023-06-22T12:53:03;10.27;;;9.02;;
14030;SDS011;7090;49.436;8.490;2023-06-22T12:55:29;9.45;;;8.70;;
14030;SDS011;7090;49.436;8.490;2023-06-22T12:57:55;8.88;;;8.38;;
14030;SDS011;7090;49.436;8.490;2023-06-22T13:00:20;8.82;;;8.23;;
14030;SDS011;7090;49.436;8.490;2023-06-22T13:02:46;8.45;;;7.68;;
14030;SDS011;7090;49.436;8.490;2023-06-22T13:05:12;8.82;;;8.15;;
14030;SDS011;7090;49.436;8.490;2023-06-22T13:07:37;9.48;;;8.85;;
14030;SDS011;7090;49.436;8.490;2023-06-22T13:10:03;9.20;;;8.45;;
14030;SDS011;7090;49.436;8.490;2023-06-22T13:12:30;9.73;;;9.00;;
14030;SDS011;7090;49.436;8.490;2023-06-22T13:14:55;10.35;;;9.38;;
14030;SDS011;7090;49.436;8.490;2023-06-22T13:17:21;12.57;;;8.75;;
14030;SDS011;7090;49.436;8.490;2023-06-22T13:19:46;11.38;;;10.32;;
14030;SDS011;7090;49.436;8.490;2023-06-22T13:24:56;11.38;;;8.60;;
14030;SDS011;7090;49.436;8.490;2023-06-22T13:27:24;10.43;;;9.60;;
14030;SDS011;7090;49.436;8.490;2023-06-22T13:29:49;9.57;;;8.85;;
14030;SDS011;7090;49.436;8.490;2023-06-22T13:32:15;10.25;;;8.82;;
14030;SDS011;7090;49.436;8.490;2023-06-22T13:34:41;9.90;;;9.02;;
14030;SDS011;7090;49.436;8.490;2023-06-22T13:37:07;9.70;;;8.93;;
14030;SDS011;7090;49.436;8.490;2023-06-22T13:39:33;8.82;;;7.97;;
14030;SDS011;7090;49.436;8.490;2023-06-22T13:41:58;10.70;;;9.60;;
14030;SDS011;7090;49.436;8.490;2023-06-22T13:44:24;10.00;;;9.10;;
14030;SDS011;7090;49.436;8.490;2023-06-22T13:46:53;8.48;;;7.95;;
14030;SDS011;7090;49.436;8.490;2023-06-22T13:49:22;9.85;;;8.93;;
14030;SDS011;7090;49.436;8.490;2023-06-22T13:51:47;9.48;;;8.73;;
14030;SDS011;7090;49.436;8.490;2023-06-22T13:54:14;10.32;;;9.40;;
14030;SDS011;7090;49.436;8.490;2023-06-22T13:56:40;10.20;;;9.50;;
14030;SDS011;7090;49.436;8.490;2023-06-22T13:59:05;9.63;;;8.38;;
14030;SDS011;7090;49.436;8.490;2023-06-22T14:01:34;9.90;;;9.13;;
14030;SDS011;7090;49.436;8.490;2023-06-22T14:04:00;8.75;;;8.15;;
14030;SDS011;7090;49.436;8.490;2023-06-22T14:06:27;9.10;;;8.32;;
14030;SDS011;7090;49.436;8.490;2023-06-22T14:08:52;13.30;;;9.20;;
14030;SDS011;7090;49.436;8.490;2023-06-22T14:11:18;8.50;;;7.90;;
14030;SDS011;7090;49.436;8.490;2023-06-22T14:13:43;7.50;;;7.10;;
14030;SDS011;7090;49.436;8.490;2023-06-22T14:16:09;9.20;;;8.55;;
14030;SDS011;7090;49.436;8.490;2023-06-22T14:18:35;8.82;;;8.18;;
14030;SDS011;7090;49.436;8.490;2023-06-22T14:21:00;9.20;;;8.40;;
14030;SDS011;7090;49.436;8.490;2023-06-22T14:23:26;8.75;;;8.25;;
14030;SDS011;7090;49.436;8.490;2023-06-22T14:25:52;6.80;;;6.50;;
14030;SDS011;7090;49.436;8.490;2023-06-22T14:28:18;10.18;;;8.00;;
14030;SDS011;7090;49.436;8.490;2023-06-22T14:30:43;7.47;;;7.07;;
14030;SDS011;7090;49.436;8.490;2023-06-22T14:33:09;9.40;;;8.38;;
14030;SDS011;7090;49.436;8.490;2023-06-22T14:35:35;7.55;;;7.07;;
14030;SDS011;7090;49.436;8.490;2023-06-22T14:38:00;9.65;;;8.80;;
14030;SDS011;7090;49.436;8.490;2023-06-22T14:40:26;15.27;;;10.00;;
14030;SDS011;7090;49.436;8.490;2023-06-22T14:42:51;10.85;;;8.50;;
14030;SDS011;7090;49.436;8.490;2023-06-22T14:45:17;13.45;;;9.30;;
14030;SDS011;7090;49.436;8.490;2023-06-22T14:47:42;8.73;;;7.88;;
14030;SDS011;7090;49.436;8.490;2023-06-22T14:50:08;8.65;;;7.85;;
14030;SDS011;7090;49.436;8.490;2023-06-22T14:52:34;10.48;;;9.43;;
14030;SDS011;7090;49.436;8.490;2023-06-22T14:54:59;7.95;;;7.28;;
14030;SDS011;7090;49.436;8.490;2023-06-22T14:57:25;8.95;;;8.07;;
14030;SDS011;7090;49.436;8.490;2023-06-22T14:59:50;10.77;;;8.20;;